O John Clark Restricted Landing Area [CLOSED]

Jump to: basic info | weather | comments

Related pages: nearby airports | nearby navaids | notams | map

Basic information (top)

Codes: 7IL2
Location: lon 42.368401, lat -87.991699, elev 790 ft / 241 m msl
Status: closed

Weather (top)

Current conditions for Waukegan Regional Airport 6nm (12km) ENE (rec'd 2014/10/25 21:55Z):

KUGN 252155Z 28010G17KT 10SM CLR 19/M03 A2989 RMK AO2 SLP117 T01941028

Airport forecast for Kenosha Regional Airport 14nm (26km) NNE (rec'd 2014/10/25 18:30Z):

TAF KENW 251729Z 2518/2618 29014G23KT P6SM SKC 
     FM260100 30008KT P6SM SKC 
     FM261300 30005KT P6SM FEW250

Latest comments (top)

No comments yet for O John Clark Restricted Landing Area

More... (top)

See also NOTAMs and nearby airports and navaids, or visit the O John Clark Restricted Landing Area page at the main OurAirports website..